Innovator — WDF4880 — position and weather

sailwx.info

Track history (hours):
 
Tides and Currents Weather Stations Pressure Air Temp Water Temp Dewpoint Dewpoint Depression Visibility Wind Speed Wind Dir Waves Ship Positions

Innovator

Owner: Canal Barge Company, Inc., Belle Chasse, LA. More information available from US FCC via Universal Licensing System and Coast Guard Vessel Documentation Center.

Last reported at 2018-Jun-16 06:21 UTC. Time now 2018-Jun-24 22:11 UTC.
Position N 29°51' W 091°54'.
Warning: this ship's position is 8 days out of date.

Length 25 m.

Type: Towing. MMSI: 367456820.

Date/timePositionNaut miles runAvg speedWind from/ knotsBaromVisibWave heightAir tempDewpointWater temp
2018-Jun-16 06:21N 29°51' W 091°54'2 6.1
2018-Jun-16 06:01N 29°51' W 091°57'3 5.9
2018-Jun-16 05:30N 29°50' W 091°60'3 6.1
2018-Jun-16 05:01N 29°49' W 092°03'3 5.5
2018-Jun-16 04:30N 29°48' W 092°06'3 5.6
2018-Jun-16 04:01N 29°47' W 092°09'2 3.9
2018-Jun-16 03:31N 29°47' W 092°12'1 1.9
2018-Jun-16 03:00N 29°47' W 092°13'1 1.5
2018-Jun-16 02:30N 29°48' W 092°13'2 3.0
2018-Jun-16 01:58N 29°48' W 092°15'0 0.7
2018-Jun-16 01:30N 29°48' W 092°15'2 4.6
2018-Jun-16 01:00N 29°50' W 092°18'3 5.1
2018-Jun-16 00:30N 29°51' W 092°20'2 4.7
2018-Jun-16 00:00N 29°52' W 092°22'3 5.2
2018-Jun-15 23:30N 29°53' W 092°25'3 5.6
2018-Jun-15 22:56N 29°54' W 092°29'33 4.4
2018-Jun-15 15:32N 29°56' W 093°06'0 5.2
2018-Jun-15 15:28N 29°56' W 093°07'2 4.8
2018-Jun-15 15:01N 29°56' W 093°09'2 4.6
2018-Jun-15 14:30N 29°58' W 093°11'2 3.7
2018-Jun-15 14:01N 29°59' W 093°13'2 4.7
2018-Jun-15 13:31N 30°01' W 093°14'2 4.7
2018-Jun-15 13:00N 30°03' W 093°16'2 3.9
2018-Jun-15 12:31N 30°05' W 093°17'1 2.4
2018-Jun-15 12:00N 30°05' W 093°18'1 1.4
2018-Jun-15 11:30N 30°06' W 093°18'0 0.1
2018-Jun-15 11:00N 30°06' W 093°18'0 0.0
2018-Jun-15 10:30N 30°06' W 093°18'1 1.3
2018-Jun-15 09:58N 30°06' W 093°19'0 0.1
2018-Jun-15 09:28N 30°06' W 093°19'0 0.0
2018-Jun-15 08:58N 30°06' W 093°19'0 0.0
2018-Jun-15 08:28N 30°06' W 093°19'0 0.0
2018-Jun-15 07:58N 30°06' W 093°19'0 0.0
2018-Jun-15 07:28N 30°06' W 093°19'0 0.1
2018-Jun-15 06:58N 30°06' W 093°19'0 0.0
2018-Jun-15 06:25N 30°06' W 093°19'0 0.0
2018-Jun-15 05:58N 30°06' W 093°19'0 0.0
2018-Jun-15 05:28N 30°06' W 093°19'0 0.0
2018-Jun-15 04:58N 30°06' W 093°19'0 0.0
2018-Jun-15 04:28N 30°06' W 093°19'0 0.1
2018-Jun-15 03:58N 30°06' W 093°19'0 0.0
2018-Jun-15 03:28N 30°06' W 093°19'0 0.0
2018-Jun-15 02:58N 30°06' W 093°19'1 1.7
2018-Jun-15 02:30N 30°05' W 093°20'2 5.0
2018-Jun-15 02:00N 30°04' W 093°22'1 1.8
2018-Jun-15 01:30N 30°04' W 093°23'0 0.1
2018-Jun-15 01:00N 30°04' W 093°23'0 0.0
2018-Jun-15 00:30N 30°04' W 093°23'0 0.0
2018-Jun-15 00:00N 30°04' W 093°23'0 0.0
2018-Jun-14 23:30N 30°04' W 093°23'2 3.5
2018-Jun-14 23:00N 30°04' W 093°25'3 5.4
2018-Jun-14 22:30N 30°04' W 093°28'2 3.6
2018-Jun-14 21:56N 30°04' W 093°30'0 0.1
2018-Jun-14 21:26N 30°04' W 093°30'2 3.7
2018-Jun-14 21:00N 30°04' W 093°32'2 4.8
2018-Jun-14 20:30N 30°04' W 093°35'4 4.8
2018-Jun-14 19:44N 30°04' W 093°39'1 5.0
2018-Jun-14 19:30N 30°04' W 093°40'2 4.8
2018-Jun-14 19:00N 30°03' W 093°43'2 3.2
2018-Jun-14 18:30N 30°02' W 093°44'3 5.0
2018-Jun-14 18:00N 30°00' W 093°46'3 5.7
2018-Jun-14 17:31N 29°59' W 093°49'3 5.4
2018-Jun-14 17:00N 29°57' W 093°52'3 6.2
2018-Jun-14 16:30N 29°54' W 093°54'3 6.6
2018-Jun-14 16:00N 29°52' W 093°56'3 6.0
2018-Jun-14 15:30N 29°49' W 093°58'3 5.4
2018-Jun-14 15:00N 29°48' W 094°00'3 5.4
2018-Jun-14 14:30N 29°46' W 094°03'3 5.2
2018-Jun-14 14:00N 29°44' W 094°05'3 5.1
2018-Jun-14 13:30N 29°43' W 094°07'3 5.0
2018-Jun-14 13:01N 29°41' W 094°10'2 4.9
2018-Jun-14 12:30N 29°41' W 094°13'3 5.1
2018-Jun-14 12:00N 29°39' W 094°15'3 5.1
2018-Jun-14 11:29N 29°38' W 094°18'2 4.5
2018-Jun-14 11:00N 29°37' W 094°20'2 4.0
2018-Jun-14 10:30N 29°36' W 094°22'2 4.4
2018-Jun-14 09:57N 29°36' W 094°25'3 3.7
2018-Jun-14 09:12N 29°34' W 094°27'2 5.2
2018-Jun-14 08:54N 29°33' W 094°28'17 3.6
2018-Jun-14 04:11N 29°24' W 094°45'1 4.2
2018-Jun-14 04:00N 29°23' W 094°46'2 4.2
2018-Jun-14 03:26N 29°22' W 094°48'12 6.0
2018-Jun-14 01:22N 29°33' W 094°55'2 5.2
2018-Jun-14 01:00N 29°35' W 094°56'3 5.2
2018-Jun-14 00:30N 29°37' W 094°57'3 5.2
2018-Jun-14 00:00N 29°39' W 094°58'3 5.6
2018-Jun-13 23:30N 29°42' W 094°60'  
2018-Jun-10 03:55N 29°42' W 094°59'2 5.0
2018-Jun-10 03:27N 29°40' W 094°58'3 5.6
2018-Jun-10 02:57N 29°37' W 094°57'27 3.5
2018-Jun-09 19:23N 29°34' W 094°27'2 4.5
2018-Jun-09 19:00N 29°34' W 094°25'2 3.6
2018-Jun-09 18:29N 29°36' W 094°24'1 0.5
2018-Jun-09 16:23N 29°36' W 094°22'2 4.5
2018-Jun-09 16:00N 29°37' W 094°21'5 5.0
2018-Jun-09 14:59N 29°39' W 094°16'2 5.0
2018-Jun-09 14:30N 29°40' W 094°13'2 4.9
2018-Jun-09 14:01N 29°41' W 094°10'2 4.7
2018-Jun-09 13:29N 29°42' W 094°08'2 5.0
2018-Jun-09 13:00N 29°44' W 094°06'3 5.0
2018-Jun-09 12:30N 29°46' W 094°04'3 5.1
2018-Jun-09 12:00N 29°47' W 094°01'2 5.0
2018-Jun-09 11:30N 29°49' W 093°59'0 0.9
2018-Jun-09 10:59N 29°49' W 093°59'0 0.0
2018-Jun-09 10:29N 29°49' W 093°59'0 0.0
2018-Jun-09 09:59N 29°49' W 093°59'0 0.0
2018-Jun-09 09:29N 29°49' W 093°59'0 0.0
2018-Jun-09 08:59N 29°49' W 093°59'0 0.0
2018-Jun-09 08:29N 29°49' W 093°59'0 0.0
2018-Jun-09 07:59N 29°49' W 093°59'0 0.3
2018-Jun-09 07:29N 29°49' W 093°59'1 1.7
2018-Jun-09 07:01N 29°49' W 093°58'2 3.6
2018-Jun-09 06:30N 29°51' W 093°57'3 5.3
2018-Jun-09 06:00N 29°53' W 093°55'3 5.5
2018-Jun-09 05:30N 29°55' W 093°53'3 5.5
2018-Jun-09 05:00N 29°58' W 093°51'2 4.8
2018-Jun-09 04:30N 29°59' W 093°54'3 5.9
2018-Jun-09 04:00N 29°60' W 093°57'2 4.8
2018-Jun-09 03:30N 30°01' W 093°60'3 5.3
2018-Jun-09 03:00N 30°02' W 094°02'1 1.2
2018-Jun-09 02:30N 30°02' W 094°03'0 0.0
2018-Jun-09 02:00N 30°02' W 094°03'0 0.0
2018-Jun-09 01:30N 30°02' W 094°03'0 0.0
2018-Jun-09 01:00N 30°02' W 094°03'0 0.0
2018-Jun-09 00:30N 30°02' W 094°03'0 0.0
2018-Jun-09 00:00N 30°02' W 094°03'0 0.0
2018-Jun-08 23:30N 30°02' W 094°03'0 0.0
2018-Jun-08 22:57N 30°02' W 094°03'0 0.0
2018-Jun-08 22:30N 30°02' W 094°03'0 0.0
2018-Jun-08 22:00N 30°02' W 094°03'0 0.0
2018-Jun-08 21:30N 30°02' W 094°03'0 0.0
2018-Jun-08 20:54N 30°02' W 094°03'0 0.0
2018-Jun-08 20:30N 30°02' W 094°03'0 0.0
2018-Jun-08 20:00N 30°02' W 094°03'0 0.0
2018-Jun-08 19:30N 30°02' W 094°03'0 0.0
2018-Jun-08 19:00N 30°02' W 094°03'0 0.0
2018-Jun-08 18:30N 30°02' W 094°03'0 0.0
2018-Jun-08 18:00N 30°02' W 094°03'0 0.0
2018-Jun-08 17:27N 30°02' W 094°03'0 0.0
2018-Jun-08 17:00N 30°02' W 094°03'0 0.0
2018-Jun-08 16:30N 30°02' W 094°03'0 0.0
2018-Jun-08 16:00N 30°02' W 094°03'0 0.0
2018-Jun-08 15:30N 30°02' W 094°03'0 0.0
2018-Jun-08 15:00N 30°02' W 094°03'0 0.0
2018-Jun-08 14:30N 30°02' W 094°03'0 0.0
2018-Jun-08 14:00N 30°02' W 094°03'0 0.0
2018-Jun-08 13:30N 30°02' W 094°03'0 0.0
2018-Jun-08 13:00N 30°02' W 094°03'0 0.0
2018-Jun-08 12:30N 30°02' W 094°03'0 0.0
2018-Jun-08 12:00N 30°02' W 094°03'0 0.0
2018-Jun-08 11:30N 30°02' W 094°03'0 0.0
2018-Jun-08 11:00N 30°02' W 094°03'0 0.0
2018-Jun-08 10:30N 30°02' W 094°03'0 0.0
2018-Jun-08 10:00N 30°02' W 094°03'0 0.0
2018-Jun-08 09:30N 30°02' W 094°03'0 0.0
2018-Jun-08 09:00N 30°02' W 094°03'0 0.0
2018-Jun-08 08:30N 30°02' W 094°03'0 0.0
2018-Jun-08 08:00N 30°02' W 094°03'0 0.0
2018-Jun-08 07:30N 30°02' W 094°03'0 0.0
2018-Jun-08 07:00N 30°02' W 094°03'0 0.0
2018-Jun-08 06:27N 30°02' W 094°03'0 0.0
2018-Jun-08 06:00N 30°02' W 094°03'0 0.0
2018-Jun-08 05:30N 30°02' W 094°03'0 0.0
2018-Jun-08 05:00N 30°02' W 094°03'0 0.0
2018-Jun-08 04:30N 30°02' W 094°03'0 0.0
2018-Jun-08 04:00N 30°02' W 094°03'0 0.0
2018-Jun-08 03:30N 30°02' W 094°03'0 0.0
2018-Jun-08 03:00N 30°02' W 094°03'0 0.0
2018-Jun-08 02:30N 30°02' W 094°03'0 0.0
2018-Jun-08 02:00N 30°02' W 094°03'0 0.0
2018-Jun-08 01:27N 30°02' W 094°03'0 0.0
2018-Jun-08 01:00N 30°02' W 094°03'0 0.0
2018-Jun-08 00:30N 30°02' W 094°03'0 0.4
2018-Jun-08 00:00N 30°02' W 094°03'0 0.8
2018-Jun-07 23:28N 30°02' W 094°02'2 3.9
2018-Jun-07 23:00N 30°01' W 094°01'2 4.7
2018-Jun-07 22:30N 30°01' W 093°58'2 4.4
2018-Jun-07 21:58N 29°59' W 093°56'2 5.2
2018-Jun-07 21:30N 29°59' W 093°53'2 4.1
2018-Jun-07 21:00N 29°57' W 093°52'3 5.8
2018-Jun-07 20:30N 29°55' W 093°53'3 5.5
2018-Jun-07 20:00N 29°53' W 093°55'3 6.0
2018-Jun-07 19:30N 29°50' W 093°57'2 3.5
2018-Jun-07 18:55N 29°49' W 093°59'2 3.7
2018-Jun-07 18:30N 29°48' W 094°00'2 3.0
2018-Jun-07 17:58N 29°47' W 094°02'2 3.5
2018-Jun-07 17:30N 29°46' W 094°03'2 3.4
2018-Jun-07 17:00N 29°45' W 094°05'2 3.8
2018-Jun-07 16:30N 29°44' W 094°06'2 3.9
2018-Jun-07 16:00N 29°42' W 094°08'2 3.1
2018-Jun-07 15:30N 29°41' W 094°10'2 4.0
2018-Jun-07 15:00N 29°41' W 094°12'2 3.7
2018-Jun-07 14:30N 29°40' W 094°14'2 4.2
2018-Jun-07 14:00N 29°39' W 094°16'1 2.9
2018-Jun-07 13:30N 29°38' W 094°17'2 4.0
2018-Jun-07 13:00N 29°38' W 094°19'2 4.0
2018-Jun-07 12:30N 29°37' W 094°21'2 3.7
2018-Jun-07 11:58N 29°36' W 094°23'1 3.0
2018-Jun-07 11:30N 29°35' W 094°25'1 1.1
2018-Jun-07 10:29N 29°34' W 094°25'1 1.2
2018-Jun-07 09:46N 29°34' W 094°26'2 3.6
2018-Jun-07 09:15N 29°33' W 094°28'2 3.0
2018-Jun-07 08:39N 29°32' W 094°29'1 3.8
2018-Jun-07 08:16N 29°31' W 094°30'2 4.3
2018-Jun-07 07:47N 29°30' W 094°33'3 4.2
2018-Jun-07 07:00N 29°29' W 094°36'3 4.2
2018-Jun-07 06:14N 29°28' W 094°40'1 4.0
2018-Jun-07 06:00N 29°27' W 094°41'2 4.0
2018-Jun-07 05:29N 29°26' W 094°42'2 3.7
2018-Jun-07 04:56N 29°25' W 094°44'2 4.0
2018-Jun-07 04:28N 29°23' W 094°46'2 3.9
2018-Jun-07 03:55N 29°22' W 094°48'1 2.5
2018-Jun-07 03:30N 29°23' W 094°48'13 5.2
2018-Jun-07 01:06N 29°34' W 094°55'1 4.7
2018-Jun-07 00:57N 29°34' W 094°56'2 4.9
2018-Jun-07 00:30N 29°36' W 094°57'3 5.4
2018-Jun-07 00:00N 29°39' W 094°58'3 5.5
2018-Jun-06 23:30N 29°41' W 094°59'  
Track history (hours):
 
Tides and Currents Weather Stations Pressure Air Temp Water Temp Dewpoint Dewpoint Depression Visibility Wind Speed Wind Dir Waves Ship Positions

Innovator

Owner: Canal Barge Company, Inc., Belle Chasse, LA. More information available from US FCC via Universal Licensing System and Coast Guard Vessel Documentation Center.

Last reported at 2018-Jun-16 06:21 UTC. Time now 2018-Jun-24 22:11 UTC.
Position N 29°51' W 091°54'.
Warning: this ship's position is 8 days out of date.

Length 25 m.

Type: Towing. MMSI: 367456820.

Date/timePositionNaut miles runAvg speedWind from/ knotsBaromVisibWave heightAir tempDewpointWater temp
2018-Jun-16 06:21N 29°51' W 091°54'2 6.1
2018-Jun-16 06:01N 29°51' W 091°57'3 5.9
2018-Jun-16 05:30N 29°50' W 091°60'3 6.1
2018-Jun-16 05:01N 29°49' W 092°03'3 5.5
2018-Jun-16 04:30N 29°48' W 092°06'3 5.6
2018-Jun-16 04:01N 29°47' W 092°09'2 3.9
2018-Jun-16 03:31N 29°47' W 092°12'1 1.9
2018-Jun-16 03:00N 29°47' W 092°13'1 1.5
2018-Jun-16 02:30N 29°48' W 092°13'2 3.0
2018-Jun-16 01:58N 29°48' W 092°15'0 0.7
2018-Jun-16 01:30N 29°48' W 092°15'2 4.6
2018-Jun-16 01:00N 29°50' W 092°18'3 5.1
2018-Jun-16 00:30N 29°51' W 092°20'2 4.7
2018-Jun-16 00:00N 29°52' W 092°22'3 5.2
2018-Jun-15 23:30N 29°53' W 092°25'3 5.6
2018-Jun-15 22:56N 29°54' W 092°29'33 4.4
2018-Jun-15 15:32N 29°56' W 093°06'0 5.2
2018-Jun-15 15:28N 29°56' W 093°07'2 4.8
2018-Jun-15 15:01N 29°56' W 093°09'2 4.6
2018-Jun-15 14:30N 29°58' W 093°11'2 3.7
2018-Jun-15 14:01N 29°59' W 093°13'2 4.7
2018-Jun-15 13:31N 30°01' W 093°14'2 4.7
2018-Jun-15 13:00N 30°03' W 093°16'2 3.9
2018-Jun-15 12:31N 30°05' W 093°17'1 2.4
2018-Jun-15 12:00N 30°05' W 093°18'1 1.4
2018-Jun-15 11:30N 30°06' W 093°18'0 0.1
2018-Jun-15 11:00N 30°06' W 093°18'0 0.0
2018-Jun-15 10:30N 30°06' W 093°18'1 1.3
2018-Jun-15 09:58N 30°06' W 093°19'0 0.1
2018-Jun-15 09:28N 30°06' W 093°19'0 0.0
2018-Jun-15 08:58N 30°06' W 093°19'0 0.0
2018-Jun-15 08:28N 30°06' W 093°19'0 0.0
2018-Jun-15 07:58N 30°06' W 093°19'0 0.0
2018-Jun-15 07:28N 30°06' W 093°19'0 0.1
2018-Jun-15 06:58N 30°06' W 093°19'0 0.0
2018-Jun-15 06:25N 30°06' W 093°19'0 0.0
2018-Jun-15 05:58N 30°06' W 093°19'0 0.0
2018-Jun-15 05:28N 30°06' W 093°19'0 0.0
2018-Jun-15 04:58N 30°06' W 093°19'0 0.0
2018-Jun-15 04:28N 30°06' W 093°19'0 0.1
2018-Jun-15 03:58N 30°06' W 093°19'0 0.0
2018-Jun-15 03:28N 30°06' W 093°19'0 0.0
2018-Jun-15 02:58N 30°06' W 093°19'1 1.7
2018-Jun-15 02:30N 30°05' W 093°20'2 5.0
2018-Jun-15 02:00N 30°04' W 093°22'1 1.8
2018-Jun-15 01:30N 30°04' W 093°23'0 0.1
2018-Jun-15 01:00N 30°04' W 093°23'0 0.0
2018-Jun-15 00:30N 30°04' W 093°23'0 0.0
2018-Jun-15 00:00N 30°04' W 093°23'0 0.0
2018-Jun-14 23:30N 30°04' W 093°23'2 3.5
2018-Jun-14 23:00N 30°04' W 093°25'3 5.4
2018-Jun-14 22:30N 30°04' W 093°28'2 3.6
2018-Jun-14 21:56N 30°04' W 093°30'0 0.1
2018-Jun-14 21:26N 30°04' W 093°30'2 3.7
2018-Jun-14 21:00N 30°04' W 093°32'2 4.8
2018-Jun-14 20:30N 30°04' W 093°35'4 4.8
2018-Jun-14 19:44N 30°04' W 093°39'1 5.0
2018-Jun-14 19:30N 30°04' W 093°40'2 4.8
2018-Jun-14 19:00N 30°03' W 093°43'2 3.2
2018-Jun-14 18:30N 30°02' W 093°44'3 5.0
2018-Jun-14 18:00N 30°00' W 093°46'3 5.7
2018-Jun-14 17:31N 29°59' W 093°49'3 5.4
2018-Jun-14 17:00N 29°57' W 093°52'3 6.2
2018-Jun-14 16:30N 29°54' W 093°54'3 6.6
2018-Jun-14 16:00N 29°52' W 093°56'3 6.0
2018-Jun-14 15:30N 29°49' W 093°58'3 5.4
2018-Jun-14 15:00N 29°48' W 094°00'3 5.4
2018-Jun-14 14:30N 29°46' W 094°03'3 5.2
2018-Jun-14 14:00N 29°44' W 094°05'3 5.1
2018-Jun-14 13:30N 29°43' W 094°07'3 5.0
2018-Jun-14 13:01N 29°41' W 094°10'2 4.9
2018-Jun-14 12:30N 29°41' W 094°13'3 5.1
2018-Jun-14 12:00N 29°39' W 094°15'3 5.1
2018-Jun-14 11:29N 29°38' W 094°18'2 4.5
2018-Jun-14 11:00N 29°37' W 094°20'2 4.0
2018-Jun-14 10:30N 29°36' W 094°22'2 4.4
2018-Jun-14 09:57N 29°36' W 094°25'3 3.7
2018-Jun-14 09:12N 29°34' W 094°27'2 5.2
2018-Jun-14 08:54N 29°33' W 094°28'17 3.6
2018-Jun-14 04:11N 29°24' W 094°45'1 4.2
2018-Jun-14 04:00N 29°23' W 094°46'2 4.2
2018-Jun-14 03:26N 29°22' W 094°48'12 6.0
2018-Jun-14 01:22N 29°33' W 094°55'2 5.2
2018-Jun-14 01:00N 29°35' W 094°56'3 5.2
2018-Jun-14 00:30N 29°37' W 094°57'3 5.2
2018-Jun-14 00:00N 29°39' W 094°58'3 5.6
2018-Jun-13 23:30N 29°42' W 094°60'  
2018-Jun-10 03:55N 29°42' W 094°59'2 5.0
2018-Jun-10 03:27N 29°40' W 094°58'3 5.6
2018-Jun-10 02:57N 29°37' W 094°57'27 3.5
2018-Jun-09 19:23N 29°34' W 094°27'2 4.5
2018-Jun-09 19:00N 29°34' W 094°25'2 3.6
2018-Jun-09 18:29N 29°36' W 094°24'1 0.5
2018-Jun-09 16:23N 29°36' W 094°22'2 4.5
2018-Jun-09 16:00N 29°37' W 094°21'5 5.0
2018-Jun-09 14:59N 29°39' W 094°16'2 5.0
2018-Jun-09 14:30N 29°40' W 094°13'2 4.9
2018-Jun-09 14:01N 29°41' W 094°10'2 4.7
2018-Jun-09 13:29N 29°42' W 094°08'2 5.0
2018-Jun-09 13:00N 29°44' W 094°06'3 5.0
2018-Jun-09 12:30N 29°46' W 094°04'3 5.1
2018-Jun-09 12:00N 29°47' W 094°01'2 5.0
2018-Jun-09 11:30N 29°49' W 093°59'0 0.9
2018-Jun-09 10:59N 29°49' W 093°59'0 0.0
2018-Jun-09 10:29N 29°49' W 093°59'0 0.0
2018-Jun-09 09:59N 29°49' W 093°59'0 0.0
2018-Jun-09 09:29N 29°49' W 093°59'0 0.0
2018-Jun-09 08:59N 29°49' W 093°59'0 0.0
2018-Jun-09 08:29N 29°49' W 093°59'0 0.0
2018-Jun-09 07:59N 29°49' W 093°59'0 0.3
2018-Jun-09 07:29N 29°49' W 093°59'1 1.7
2018-Jun-09 07:01N 29°49' W 093°58'2 3.6
2018-Jun-09 06:30N 29°51' W 093°57'3 5.3
2018-Jun-09 06:00N 29°53' W 093°55'3 5.5
2018-Jun-09 05:30N 29°55' W 093°53'3 5.5
2018-Jun-09 05:00N 29°58' W 093°51'2 4.8
2018-Jun-09 04:30N 29°59' W 093°54'3 5.9
2018-Jun-09 04:00N 29°60' W 093°57'2 4.8
2018-Jun-09 03:30N 30°01' W 093°60'3 5.3
2018-Jun-09 03:00N 30°02' W 094°02'1 1.2
2018-Jun-09 02:30N 30°02' W 094°03'0 0.0
2018-Jun-09 02:00N 30°02' W 094°03'0 0.0
2018-Jun-09 01:30N 30°02' W 094°03'0 0.0
2018-Jun-09 01:00N 30°02' W 094°03'0 0.0
2018-Jun-09 00:30N 30°02' W 094°03'0 0.0
2018-Jun-09 00:00N 30°02' W 094°03'0 0.0
2018-Jun-08 23:30N 30°02' W 094°03'0 0.0
2018-Jun-08 22:57N 30°02' W 094°03'0 0.0
2018-Jun-08 22:30N 30°02' W 094°03'0 0.0
2018-Jun-08 22:00N 30°02' W 094°03'0 0.0
2018-Jun-08 21:30N 30°02' W 094°03'0 0.0
2018-Jun-08 20:54N 30°02' W 094°03'0 0.0
2018-Jun-08 20:30N 30°02' W 094°03'0 0.0
2018-Jun-08 20:00N 30°02' W 094°03'0 0.0
2018-Jun-08 19:30N 30°02' W 094°03'0 0.0
2018-Jun-08 19:00N 30°02' W 094°03'0 0.0
2018-Jun-08 18:30N 30°02' W 094°03'0 0.0
2018-Jun-08 18:00N 30°02' W 094°03'0 0.0
2018-Jun-08 17:27N 30°02' W 094°03'0 0.0
2018-Jun-08 17:00N 30°02' W 094°03'0 0.0
2018-Jun-08 16:30N 30°02' W 094°03'0 0.0
2018-Jun-08 16:00N 30°02' W 094°03'0 0.0
2018-Jun-08 15:30N 30°02' W 094°03'0 0.0
2018-Jun-08 15:00N 30°02' W 094°03'0 0.0
2018-Jun-08 14:30N 30°02' W 094°03'0 0.0
2018-Jun-08 14:00N 30°02' W 094°03'0 0.0
2018-Jun-08 13:30N 30°02' W 094°03'0 0.0
2018-Jun-08 13:00N 30°02' W 094°03'0 0.0
2018-Jun-08 12:30N 30°02' W 094°03'0 0.0
2018-Jun-08 12:00N 30°02' W 094°03'0 0.0
2018-Jun-08 11:30N 30°02' W 094°03'0 0.0
2018-Jun-08 11:00N 30°02' W 094°03'0 0.0
2018-Jun-08 10:30N 30°02' W 094°03'0 0.0
2018-Jun-08 10:00N 30°02' W 094°03'0 0.0
2018-Jun-08 09:30N 30°02' W 094°03'0 0.0
2018-Jun-08 09:00N 30°02' W 094°03'0 0.0
2018-Jun-08 08:30N 30°02' W 094°03'0 0.0
2018-Jun-08 08:00N 30°02' W 094°03'0 0.0
2018-Jun-08 07:30N 30°02' W 094°03'0 0.0
2018-Jun-08 07:00N 30°02' W 094°03'0 0.0
2018-Jun-08 06:27N 30°02' W 094°03'0 0.0
2018-Jun-08 06:00N 30°02' W 094°03'0 0.0
2018-Jun-08 05:30N 30°02' W 094°03'0 0.0
2018-Jun-08 05:00N 30°02' W 094°03'0 0.0
2018-Jun-08 04:30N 30°02' W 094°03'0 0.0
2018-Jun-08 04:00N 30°02' W 094°03'0 0.0
2018-Jun-08 03:30N 30°02' W 094°03'0 0.0
2018-Jun-08 03:00N 30°02' W 094°03'0 0.0
2018-Jun-08 02:30N 30°02' W 094°03'0 0.0
2018-Jun-08 02:00N 30°02' W 094°03'0 0.0
2018-Jun-08 01:27N 30°02' W 094°03'0 0.0
2018-Jun-08 01:00N 30°02' W 094°03'0 0.0
2018-Jun-08 00:30N 30°02' W 094°03'0 0.4
2018-Jun-08 00:00N 30°02' W 094°03'0 0.8
2018-Jun-07 23:28N 30°02' W 094°02'2 3.9
2018-Jun-07 23:00N 30°01' W 094°01'2 4.7
2018-Jun-07 22:30N 30°01' W 093°58'2 4.4
2018-Jun-07 21:58N 29°59' W 093°56'2 5.2
2018-Jun-07 21:30N 29°59' W 093°53'2 4.1
2018-Jun-07 21:00N 29°57' W 093°52'3 5.8
2018-Jun-07 20:30N 29°55' W 093°53'3 5.5
2018-Jun-07 20:00N 29°53' W 093°55'3 6.0
2018-Jun-07 19:30N 29°50' W 093°57'2 3.5
2018-Jun-07 18:55N 29°49' W 093°59'2 3.7
2018-Jun-07 18:30N 29°48' W 094°00'2 3.0
2018-Jun-07 17:58N 29°47' W 094°02'2 3.5
2018-Jun-07 17:30N 29°46' W 094°03'2 3.4
2018-Jun-07 17:00N 29°45' W 094°05'2 3.8
2018-Jun-07 16:30N 29°44' W 094°06'2 3.9
2018-Jun-07 16:00N 29°42' W 094°08'2 3.1
2018-Jun-07 15:30N 29°41' W 094°10'2 4.0
2018-Jun-07 15:00N 29°41' W 094°12'2 3.7
2018-Jun-07 14:30N 29°40' W 094°14'2 4.2
2018-Jun-07 14:00N 29°39' W 094°16'1 2.9
2018-Jun-07 13:30N 29°38' W 094°17'2 4.0
2018-Jun-07 13:00N 29°38' W 094°19'2 4.0
2018-Jun-07 12:30N 29°37' W 094°21'2 3.7
2018-Jun-07 11:58N 29°36' W 094°23'1 3.0
2018-Jun-07 11:30N 29°35' W 094°25'1 1.1
2018-Jun-07 10:29N 29°34' W 094°25'1 1.2
2018-Jun-07 09:46N 29°34' W 094°26'2 3.6
2018-Jun-07 09:15N 29°33' W 094°28'2 3.0
2018-Jun-07 08:39N 29°32' W 094°29'1 3.8
2018-Jun-07 08:16N 29°31' W 094°30'2 4.3
2018-Jun-07 07:47N 29°30' W 094°33'3 4.2
2018-Jun-07 07:00N 29°29' W 094°36'3 4.2
2018-Jun-07 06:14N 29°28' W 094°40'1 4.0
2018-Jun-07 06:00N 29°27' W 094°41'2 4.0
2018-Jun-07 05:29N 29°26' W 094°42'2 3.7
2018-Jun-07 04:56N 29°25' W 094°44'2 4.0
2018-Jun-07 04:28N 29°23' W 094°46'2 3.9
2018-Jun-07 03:55N 29°22' W 094°48'1 2.5
2018-Jun-07 03:30N 29°23' W 094°48'13 5.2
2018-Jun-07 01:06N 29°34' W 094°55'1 4.7
2018-Jun-07 00:57N 29°34' W 094°56'2 4.9
2018-Jun-07 00:30N 29°36' W 094°57'3 5.4
2018-Jun-07 00:00N 29°39' W 094°58'3 5.5
2018-Jun-06 23:30N 29°41' W 094°59'  

Dump ship's entire track history